createdAt,value
2018-06-02T00:02:22.186Z,90.40
2018-06-02T00:04:55.871Z,90.60
2018-06-02T00:07:29.604Z,90.50
2018-06-02T00:10:03.882Z,90.70
2018-06-02T00:12:37.479Z,91.00
2018-06-02T00:15:11.233Z,90.90
2018-06-02T00:17:44.733Z,91.20
2018-06-02T00:20:18.299Z,91.00
2018-06-02T00:22:51.902Z,91.30
2018-06-02T00:25:25.464Z,91.30
2018-06-02T00:27:59.002Z,91.20
2018-06-02T00:30:32.691Z,91.20
2018-06-02T00:33:06.440Z,91.20
2018-06-02T00:35:40.299Z,91.10
2018-06-02T00:38:13.947Z,91.20
2018-06-02T00:40:47.560Z,91.20
2018-06-02T00:43:21.231Z,91.50
2018-06-02T00:45:54.837Z,91.20
2018-06-02T00:48:28.638Z,91.20
2018-06-02T00:51:02.303Z,91.00
2018-06-02T00:53:36.042Z,91.10
2018-06-02T00:56:09.547Z,90.90
2018-06-02T00:58:43.969Z,91.10
2018-06-02T01:01:17.526Z,91.00
2018-06-02T01:03:51.948Z,91.50
2018-06-02T01:06:25.690Z,91.50
2018-06-02T01:08:59.319Z,91.30
2018-06-02T01:11:32.967Z,91.70
2018-06-02T01:14:06.692Z,91.00
2018-06-02T01:16:41.325Z,91.30
2018-06-02T01:19:15.033Z,91.30
2018-06-02T01:21:49.401Z,91.20
2018-06-02T01:24:23.843Z,91.00
2018-06-02T01:26:57.570Z,91.00
2018-06-02T01:29:31.222Z,90.90
2018-06-02T01:32:05.791Z,90.80
2018-06-02T01:34:39.415Z,90.80
2018-06-02T01:37:13.226Z,91.00
2018-06-02T01:39:46.921Z,91.00
2018-06-02T01:42:20.820Z,90.80
2018-06-02T01:44:55.134Z,90.80
2018-06-02T01:47:28.902Z,91.00
2018-06-02T01:50:02.644Z,90.90
2018-06-02T01:52:37.267Z,91.00
2018-06-02T01:55:10.867Z,91.10
2018-06-02T01:57:44.579Z,91.00
2018-06-02T02:00:18.987Z,91.40
2018-06-02T02:02:52.577Z,91.10
2018-06-02T02:05:26.171Z,90.90
2018-06-02T02:07:59.799Z,90.90
2018-06-02T02:10:33.514Z,90.80
2018-06-02T02:13:07.301Z,91.00
2018-06-02T02:15:41.059Z,91.30
2018-06-02T02:18:14.599Z,91.30
2018-06-02T02:20:48.288Z,91.40
2018-06-02T02:23:22.106Z,91.40
2018-06-02T02:25:55.913Z,91.20
2018-06-02T02:28:29.733Z,91.10
2018-06-02T02:31:03.526Z,91.30
2018-06-02T02:33:37.951Z,91.00
2018-06-02T02:36:11.459Z,91.00
2018-06-02T02:38:45.154Z,91.10
2018-06-02T02:41:18.876Z,91.20
2018-06-02T02:43:52.554Z,91.10
2018-06-02T02:46:27.183Z,91.00
2018-06-02T02:49:00.786Z,90.90
2018-06-02T02:51:34.590Z,90.90
2018-06-02T02:54:08.113Z,91.20
2018-06-02T02:56:41.845Z,91.30
2018-06-02T02:59:15.508Z,91.40
2018-06-02T03:01:49.049Z,91.50
2018-06-02T03:04:22.800Z,91.20
2018-06-02T03:06:57.216Z,91.30
2018-06-02T03:09:31.032Z,91.30
2018-06-02T03:12:04.539Z,91.40
2018-06-02T03:14:38.229Z,91.00
2018-06-02T03:17:11.906Z,91.10
2018-06-02T03:19:45.839Z,91.30
2018-06-02T03:22:20.339Z,91.40
2018-06-02T03:24:54.055Z,91.40
2018-06-02T03:27:27.559Z,91.80
2018-06-02T03:30:01.268Z,91.80
2018-06-02T03:32:35.071Z,91.70
2018-06-02T03:35:08.799Z,91.30
2018-06-02T03:37:42.334Z,91.60
2018-06-02T03:40:16.074Z,91.20
2018-06-02T03:42:49.632Z,91.70
2018-06-02T03:45:23.165Z,91.70
2018-06-02T03:47:56.883Z,91.60
2018-06-02T03:50:30.477Z,91.50
2018-06-02T03:53:04.170Z,91.40
2018-06-02T03:55:37.774Z,91.40
2018-06-02T03:58:11.491Z,91.20
2018-06-02T04:00:45.012Z,91.30
2018-06-02T04:03:18.691Z,91.40
2018-06-02T04:05:52.494Z,90.90
2018-06-02T04:08:26.509Z,90.70
2018-06-02T04:11:00.306Z,91.00
2018-06-02T04:13:33.918Z,91.10
2018-06-02T04:16:07.714Z,91.30
2018-06-02T04:18:41.207Z,91.00
2018-06-02T04:21:14.919Z,91.30
2018-06-02T04:23:49.217Z,91.30
2018-06-02T04:26:22.912Z,91.30
2018-06-02T04:28:57.222Z,91.90
2018-06-02T04:31:30.891Z,91.50
2018-06-02T04:34:04.462Z,91.50
2018-06-02T04:36:38.025Z,91.70
2018-06-02T04:39:11.971Z,91.70
2018-06-02T04:41:45.647Z,91.40
2018-06-02T04:44:19.370Z,91.30
2018-06-02T04:46:53.078Z,91.40
2018-06-02T04:49:26.652Z,91.20
2018-06-02T04:52:00.301Z,91.20
2018-06-02T04:54:34.669Z,90.70
2018-06-02T04:57:08.286Z,90.70
2018-06-02T04:59:41.946Z,90.80
2018-06-02T05:02:15.815Z,90.80
2018-06-02T05:04:50.439Z,90.90
2018-06-02T05:07:24.238Z,90.70
2018-06-02T05:09:58.733Z,91.10
2018-06-02T05:12:32.675Z,91.00
2018-06-02T05:15:06.375Z,90.90
2018-06-02T05:17:40.286Z,91.10
2018-06-02T05:20:13.798Z,90.80
2018-06-02T05:22:47.691Z,90.60
2018-06-02T05:25:21.302Z,90.70
2018-06-02T05:27:55.310Z,90.80
2018-06-02T05:30:29.107Z,91.20
2018-06-02T05:33:03.408Z,91.30
2018-06-02T05:35:37.020Z,91.30
2018-06-02T05:38:10.734Z,90.70
2018-06-02T05:40:44.540Z,90.70
2018-06-02T05:43:18.178Z,90.70
2018-06-02T05:45:51.953Z,90.70
2018-06-02T05:48:26.227Z,90.70
2018-06-02T05:50:59.955Z,90.70
2018-06-02T05:53:34.386Z,90.20
2018-06-02T05:56:08.897Z,90.50
2018-06-02T05:58:42.475Z,90.50
2018-06-02T06:01:16.093Z,90.60
2018-06-02T06:03:49.674Z,90.40
2018-06-02T06:06:23.619Z,90.30
2018-06-02T06:08:57.323Z,90.30
2018-06-02T06:11:30.908Z,90.50
2018-06-02T06:14:04.828Z,90.50
2018-06-02T06:16:38.633Z,90.40
2018-06-02T06:19:12.439Z,90.30
2018-06-02T06:21:47.064Z,90.60
2018-06-02T06:24:20.783Z,90.50
2018-06-02T06:26:55.190Z,90.80
2018-06-02T06:29:28.964Z,90.60
2018-06-02T06:32:02.603Z,90.20
2018-06-02T06:34:36.193Z,90.30
2018-06-02T06:37:09.814Z,90.10
2018-06-02T06:39:43.569Z,89.60
2018-06-02T06:42:17.219Z,89.50
2018-06-02T06:44:50.881Z,89.50
2018-06-02T06:47:24.706Z,89.50
2018-06-02T06:49:58.328Z,90.00
2018-06-02T06:52:32.746Z,90.40
2018-06-02T06:55:06.538Z,90.30
2018-06-02T06:57:40.390Z,89.80
2018-06-02T07:00:14.161Z,90.20
2018-06-02T07:02:47.956Z,90.00
2018-06-02T07:05:21.558Z,89.70
2018-06-02T07:07:56.080Z,90.00
2018-06-02T07:10:29.992Z,90.00
2018-06-02T07:13:04.491Z,89.50
2018-06-02T07:15:38.445Z,89.90
2018-06-02T07:18:12.431Z,89.50
2018-06-02T07:20:46.098Z,89.40
2018-06-02T07:23:20.651Z,90.00
2018-06-02T07:25:54.158Z,90.00
2018-06-02T07:28:27.740Z,90.00
2018-06-02T07:31:01.319Z,90.10
2018-06-02T07:33:34.875Z,89.90
2018-06-02T07:36:08.686Z,89.60
2018-06-02T07:38:43.079Z,89.70
2018-06-02T07:41:16.886Z,89.80
2018-06-02T07:43:50.576Z,89.70
2018-06-02T07:46:24.986Z,89.90
2018-06-02T07:49:00.146Z,90.00
2018-06-02T07:51:33.950Z,90.00
2018-06-02T07:54:08.574Z,89.60
2018-06-02T07:56:42.384Z,89.60
2018-06-02T07:59:16.006Z,89.10
2018-06-02T08:01:51.220Z,89.30
2018-06-02T08:04:25.517Z,89.20
2018-06-02T08:06:59.243Z,89.10
2018-06-02T08:09:32.756Z,89.00
2018-06-02T08:12:06.311Z,89.30
2018-06-02T08:14:39.965Z,89.20
2018-06-02T08:17:13.525Z,88.70
2018-06-02T08:19:47.247Z,88.90
2018-06-02T08:22:21.056Z,88.80
2018-06-02T08:24:54.766Z,88.20
2018-06-02T08:27:28.463Z,89.10
2018-06-02T08:30:02.738Z,90.00
2018-06-02T08:32:36.693Z,88.90
2018-06-02T08:35:11.167Z,90.00
2018-06-02T08:37:44.754Z,89.20
2018-06-02T08:40:18.311Z,89.30
2018-06-02T08:42:51.931Z,88.50
2018-06-02T08:45:25.470Z,87.70
2018-06-02T08:47:59.815Z,88.30
2018-06-02T08:50:33.734Z,88.20
2018-06-02T08:53:07.542Z,88.10
2018-06-02T08:55:41.346Z,87.80
2018-06-02T08:58:14.947Z,88.00
2018-06-02T09:00:48.601Z,87.80
2018-06-02T09:03:22.326Z,88.30
2018-06-02T09:05:55.954Z,87.80
2018-06-02T09:08:30.370Z,86.90
2018-06-02T09:11:03.967Z,87.50
2018-06-02T09:13:38.479Z,88.00
2018-06-02T09:16:12.167Z,87.70
2018-06-02T09:18:45.830Z,87.00
2018-06-02T09:21:20.097Z,87.60
2018-06-02T09:23:54.031Z,87.60
2018-06-02T09:26:27.831Z,88.10
2018-06-02T09:29:02.338Z,88.10
2018-06-02T09:31:36.065Z,88.10
2018-06-02T09:34:09.648Z,88.20
2018-06-02T09:36:44.091Z,87.70
2018-06-02T09:39:17.890Z,87.80
2018-06-02T09:41:51.460Z,88.00
2018-06-02T09:44:25.786Z,87.90
2018-06-02T09:46:59.706Z,87.90
2018-06-02T09:49:33.347Z,87.30
2018-06-02T09:52:07.118Z,88.00
2018-06-02T09:54:41.743Z,88.70
2018-06-02T09:57:15.428Z,87.90
2018-06-02T09:59:49.376Z,88.10
2018-06-02T10:02:22.959Z,87.90
2018-06-02T10:04:56.765Z,87.60
2018-06-02T10:07:30.572Z,88.70
2018-06-02T10:10:04.171Z,88.20
2018-06-02T10:12:37.731Z,88.80
2018-06-02T10:15:11.259Z,88.60
2018-06-02T10:17:44.842Z,88.70
2018-06-02T10:20:18.780Z,89.10
2018-06-02T10:22:52.382Z,89.00
2018-06-02T10:25:25.983Z,88.40
2018-06-02T10:27:59.578Z,88.60
2018-06-02T10:30:33.382Z,88.60
2018-06-02T10:33:06.883Z,89.40
2018-06-02T10:35:41.374Z,89.80
2018-06-02T10:38:14.876Z,89.70
2018-06-02T10:40:49.317Z,89.50
2018-06-02T10:43:22.879Z,89.50
2018-06-02T10:45:57.332Z,90.10
2018-06-02T10:48:30.951Z,90.10
2018-06-02T10:51:05.975Z,90.10
2018-06-02T10:53:39.774Z,90.10
2018-06-02T10:56:13.476Z,90.10
2018-06-02T10:58:47.144Z,90.00
2018-06-02T11:01:20.894Z,90.50
2018-06-02T11:03:54.526Z,90.10
2018-06-02T11:06:28.195Z,89.50
2018-06-02T11:09:01.917Z,89.00
2018-06-02T11:11:35.547Z,89.40
2018-06-02T11:14:09.335Z,88.80
2018-06-02T11:16:42.902Z,89.40
2018-06-02T11:19:16.480Z,89.20
2018-06-02T11:21:50.115Z,88.50
2018-06-02T11:24:24.122Z,88.10
2018-06-02T11:26:57.932Z,87.70
2018-06-02T11:29:31.747Z,87.40
2018-06-02T11:32:05.540Z,86.60
2018-06-02T11:34:39.345Z,86.70
2018-06-02T11:37:12.966Z,86.30
2018-06-02T11:39:47.360Z,88.10
2018-06-02T11:42:21.100Z,87.30
2018-06-02T11:44:54.665Z,86.90
2018-06-02T11:47:28.386Z,86.90
2018-06-02T11:50:01.912Z,87.80
2018-06-02T11:52:35.691Z,88.50
2018-06-02T11:55:10.198Z,88.10
2018-06-02T11:57:44.007Z,88.20
2018-06-02T12:00:18.431Z,88.20
2018-06-02T12:02:52.235Z,88.30
2018-06-02T12:05:25.851Z,87.40
2018-06-02T12:07:59.439Z,86.90
2018-06-02T12:10:33.054Z,86.50
2018-06-02T12:13:06.802Z,86.50
2018-06-02T12:15:40.350Z,86.70
2018-06-02T12:18:14.234Z,86.90
2018-06-02T12:20:48.146Z,85.60
2018-06-02T12:23:21.858Z,85.90
2018-06-02T12:25:55.763Z,84.00
2018-06-02T12:28:29.579Z,83.90
2018-06-02T12:31:04.100Z,82.80
2018-06-02T12:33:37.703Z,82.90
2018-06-02T12:36:11.503Z,82.80
2018-06-02T12:38:45.383Z,83.30
2018-06-02T12:41:19.096Z,79.00
2018-06-02T12:43:52.996Z,80.70
2018-06-02T12:46:26.816Z,81.10
2018-06-02T12:49:00.735Z,82.00
2018-06-02T12:51:34.534Z,81.70
2018-06-02T12:54:08.961Z,83.90
2018-06-02T12:56:42.771Z,83.00
2018-06-02T12:59:17.451Z,82.20
2018-06-02T13:01:51.187Z,82.20
2018-06-02T13:04:25.711Z,82.20
2018-06-02T13:07:00.244Z,82.20
2018-06-02T13:09:35.546Z,82.20
2018-06-02T13:12:09.445Z,82.60
2018-06-02T13:14:43.214Z,82.90
2018-06-02T13:17:16.700Z,83.10
2018-06-02T13:19:50.196Z,82.50
2018-06-02T13:22:24.112Z,81.50
2018-06-02T13:24:58.598Z,82.00
2018-06-02T13:27:32.241Z,82.00
2018-06-02T13:30:05.930Z,82.30
2018-06-02T13:32:39.735Z,82.70
2018-06-02T13:35:13.544Z,82.20
2018-06-02T13:37:47.143Z,82.60
2018-06-02T13:40:21.647Z,82.20
2018-06-02T13:42:55.455Z,82.20
2018-06-02T13:45:29.180Z,82.60
2018-06-02T13:48:02.768Z,82.80
2018-06-02T13:50:37.066Z,83.50
2018-06-02T13:53:10.796Z,83.50
2018-06-02T13:55:45.210Z,83.00
2018-06-02T13:58:19.023Z,83.00
2018-06-02T14:00:52.827Z,82.60
2018-06-02T14:03:26.447Z,81.70
2018-06-02T14:06:00.154Z,82.00
2018-06-02T14:08:33.832Z,82.00
2018-06-02T14:11:07.436Z,82.40
2018-06-02T14:13:41.963Z,81.90
2018-06-02T14:16:15.862Z,81.90
2018-06-02T14:18:49.535Z,81.40
2018-06-02T14:21:23.078Z,81.20
2018-06-02T14:23:56.810Z,81.30
2018-06-02T14:26:30.542Z,81.30
2018-06-02T14:29:04.487Z,81.70
2018-06-02T14:31:38.211Z,81.50
2018-06-02T14:34:12.088Z,81.50
2018-06-02T14:36:46.399Z,80.20
2018-06-02T14:39:20.122Z,80.20
2018-06-02T14:41:53.715Z,79.50
2018-06-02T14:44:27.273Z,79.30
2018-06-02T14:47:01.002Z,78.50
2018-06-02T14:49:34.727Z,78.80
2018-06-02T14:52:08.562Z,79.30
2018-06-02T14:54:42.282Z,77.70
2018-06-02T14:57:16.055Z,77.80
2018-06-02T14:59:49.742Z,78.40
2018-06-02T15:02:23.555Z,77.40
2018-06-02T15:04:57.227Z,77.40
2018-06-02T15:07:30.838Z,77.90
2018-06-02T15:10:05.384Z,78.60
2018-06-02T15:12:39.394Z,78.50
2018-06-02T15:15:13.678Z,79.90
2018-06-02T15:17:47.618Z,79.80
2018-06-02T15:20:21.219Z,79.80
2018-06-02T15:22:56.699Z,78.50
2018-06-02T15:25:30.463Z,78.60
2018-06-02T15:28:04.150Z,78.00
2018-06-02T15:30:37.731Z,77.80
2018-06-02T15:33:11.300Z,77.10
2018-06-02T15:35:45.888Z,78.10
2018-06-02T15:38:19.591Z,78.10
2018-06-02T15:40:53.303Z,79.60
2018-06-02T15:43:27.098Z,80.10
2018-06-02T15:46:00.916Z,80.00
2018-06-02T15:48:35.427Z,80.00
2018-06-02T15:51:09.127Z,80.00
2018-06-02T15:53:42.778Z,80.30
2018-06-02T15:56:16.334Z,80.30
2018-06-02T15:58:50.043Z,78.70
2018-06-02T16:01:23.948Z,80.30
2018-06-02T16:03:58.247Z,79.90
2018-06-02T16:06:31.830Z,79.90
2018-06-02T16:09:05.363Z,80.60
2018-06-02T16:11:39.166Z,79.90
2018-06-02T16:14:13.062Z,79.90
2018-06-02T16:16:46.779Z,80.00
2018-06-02T16:19:20.298Z,80.70
2018-06-02T16:21:54.196Z,81.00
2018-06-02T16:24:27.827Z,81.00
2018-06-02T16:27:01.594Z,80.90
2018-06-02T16:29:35.278Z,80.70
2018-06-02T16:32:08.869Z,80.80
2018-06-02T16:34:42.519Z,80.20
2018-06-02T16:37:16.167Z,80.30
2018-06-02T16:39:50.831Z,79.60
2018-06-02T16:42:24.497Z,79.60
2018-06-02T16:44:58.114Z,79.10
2018-06-02T16:47:31.835Z,79.30
2018-06-02T16:50:05.739Z,79.20
2018-06-02T16:52:39.343Z,79.00
2018-06-02T16:55:13.166Z,78.00
2018-06-02T16:57:47.864Z,79.90
2018-06-02T17:00:21.431Z,79.50
2018-06-02T17:02:55.303Z,79.00
2018-06-02T17:05:29.016Z,78.30
2018-06-02T17:08:02.895Z,79.90
2018-06-02T17:10:36.755Z,79.60
2018-06-02T17:13:10.371Z,78.40
2018-06-02T17:15:44.111Z,79.00
2018-06-02T17:18:19.115Z,78.70
2018-06-02T17:20:52.832Z,78.70
2018-06-02T17:23:28.063Z,78.00
2018-06-02T17:26:01.992Z,79.30
2018-06-02T17:28:35.606Z,79.50
2018-06-02T17:31:09.447Z,79.30
2018-06-02T17:33:43.118Z,79.00
2018-06-02T17:36:17.214Z,79.60
2018-06-02T17:38:50.975Z,79.60
2018-06-02T17:41:25.440Z,80.10
2018-06-02T17:43:59.210Z,80.10
2018-06-02T17:46:32.853Z,80.90
2018-06-02T17:49:06.652Z,80.40
2018-06-02T17:51:40.460Z,80.80
2018-06-02T17:54:14.264Z,80.80
2018-06-02T17:56:47.921Z,81.10
2018-06-02T17:59:21.710Z,81.40
2018-06-02T18:01:55.235Z,81.60
2018-06-02T18:04:29.075Z,82.20
2018-06-02T18:07:02.681Z,83.40
2018-06-02T18:09:36.371Z,83.50
2018-06-02T18:12:12.004Z,84.00
2018-06-02T18:14:45.659Z,84.00
2018-06-02T18:17:19.335Z,85.80
2018-06-02T18:19:52.875Z,85.30
2018-06-02T18:22:26.625Z,86.70
2018-06-02T18:25:00.358Z,86.30
2018-06-02T18:27:34.195Z,86.20
2018-06-02T18:30:07.929Z,87.20
2018-06-02T18:32:41.574Z,87.60
2018-06-02T18:35:15.138Z,87.40
2018-06-02T18:37:48.770Z,87.10
2018-06-02T18:40:22.516Z,87.40
2018-06-02T18:42:56.186Z,87.00
2018-06-02T18:45:29.976Z,86.70
2018-06-02T18:48:05.076Z,87.40
2018-06-02T18:50:38.798Z,87.40
2018-06-02T18:53:13.036Z,87.40
2018-06-02T18:55:46.794Z,87.70
2018-06-02T18:58:20.319Z,88.60
2018-06-02T19:00:54.031Z,89.40
2018-06-02T19:03:27.848Z,89.30
2018-06-02T19:06:01.531Z,89.20
2018-06-02T19:08:35.047Z,90.30
2018-06-02T19:11:08.730Z,90.10
2018-06-02T19:13:43.186Z,90.50
2018-06-02T19:16:17.567Z,90.30
2018-06-02T19:18:51.365Z,90.20
2018-06-02T19:21:25.086Z,90.00
2018-06-02T19:23:58.896Z,90.50
2018-06-02T19:26:32.576Z,90.50
2018-06-02T19:29:06.303Z,90.70
2018-06-02T19:31:40.109Z,90.60
2018-06-02T19:34:13.771Z,90.80
2018-06-02T19:36:47.599Z,91.00
2018-06-02T19:39:21.523Z,91.10
2018-06-02T19:41:55.332Z,91.00
2018-06-02T19:44:29.134Z,91.00
2018-06-02T19:47:02.823Z,90.90
2018-06-02T19:50:13.335Z,90.90
2018-06-02T19:52:47.653Z,91.10
2018-06-02T19:55:22.011Z,91.00
2018-06-02T19:57:56.371Z,90.80
2018-06-02T20:00:30.690Z,90.80
2018-06-02T20:03:04.956Z,90.90
2018-06-02T20:05:39.354Z,90.90
2018-06-02T20:08:13.672Z,91.00
2018-06-02T20:10:48.027Z,90.80
2018-06-02T20:13:22.456Z,90.90
2018-06-02T20:15:57.174Z,91.00
2018-06-02T20:18:31.342Z,90.90
2018-06-02T20:21:05.591Z,91.40
2018-06-02T20:23:39.855Z,91.40
2018-06-02T20:26:14.044Z,91.30
2018-06-02T20:28:48.362Z,91.20
2018-06-02T20:31:22.740Z,91.20
2018-06-02T20:33:56.959Z,91.30
2018-06-02T20:36:31.255Z,91.50
2018-06-02T20:39:06.075Z,91.50
2018-06-02T20:41:40.470Z,91.40
2018-06-02T20:44:14.628Z,91.40
2018-06-02T20:49:23.070Z,91.40
2018-06-02T20:51:57.255Z,91.90
2018-06-02T20:54:31.448Z,91.70
2018-06-02T20:57:05.839Z,91.70
2018-06-02T20:59:40.158Z,91.70
2018-06-02T21:02:14.619Z,92.00
2018-06-02T21:04:48.912Z,91.80
2018-06-02T21:07:23.103Z,92.00
2018-06-02T21:09:57.242Z,91.80
2018-06-02T21:12:31.480Z,91.80
2018-06-02T21:15:05.719Z,91.90
2018-06-02T21:17:40.189Z,91.90
2018-06-02T21:20:14.769Z,91.90
2018-06-02T21:22:48.966Z,91.90
2018-06-02T21:25:23.355Z,91.80
2018-06-02T21:27:57.533Z,91.70
2018-06-02T21:30:32.006Z,91.50
2018-06-02T21:33:06.282Z,91.40
2018-06-02T21:35:40.661Z,91.10
2018-06-02T21:38:15.125Z,91.90
2018-06-02T21:40:49.586Z,91.70
2018-06-02T21:43:30.397Z,91.80
2018-06-02T21:46:04.813Z,91.80
2018-06-02T21:48:39.232Z,91.80
2018-06-02T21:53:47.588Z,91.80
2018-06-02T21:56:21.961Z,91.70
2018-06-02T21:58:56.258Z,91.90
2018-06-02T22:01:30.571Z,91.80
2018-06-02T22:04:04.776Z,91.80
2018-06-02T22:06:39.064Z,91.80
2018-06-02T22:09:13.362Z,91.80
2018-06-02T22:11:47.751Z,91.80
2018-06-02T22:14:21.914Z,91.80
2018-06-02T22:16:56.262Z,91.70
2018-06-02T22:19:30.522Z,92.00
2018-06-02T22:22:04.795Z,92.10
2018-06-02T22:24:39.190Z,92.20
2018-06-02T22:27:13.555Z,92.00
2018-06-02T22:29:47.762Z,91.80
2018-06-02T22:32:22.207Z,91.90
2018-06-02T22:34:56.620Z,91.70
2018-06-02T22:37:30.904Z,91.70
2018-06-02T22:40:05.204Z,92.00
2018-06-02T22:42:39.513Z,92.10
2018-06-02T22:45:13.684Z,92.40
2018-06-02T22:47:47.887Z,92.30
2018-06-02T22:50:22.070Z,92.20
2018-06-02T22:52:56.580Z,92.10
2018-06-02T22:55:30.823Z,92.10
2018-06-02T22:58:05.085Z,92.10
2018-06-02T23:00:39.350Z,92.10
2018-06-02T23:03:13.781Z,92.20
2018-06-02T23:05:48.122Z,92.10
2018-06-02T23:08:22.448Z,92.20
2018-06-02T23:10:56.691Z,92.10
2018-06-02T23:13:30.876Z,92.30
2018-06-02T23:16:05.241Z,92.10
2018-06-02T23:18:39.603Z,92.30
2018-06-02T23:21:14.005Z,92.30
2018-06-02T23:23:48.288Z,92.40
2018-06-02T23:26:22.611Z,92.40
2018-06-02T23:28:57.019Z,92.40
2018-06-02T23:31:31.340Z,92.40
2018-06-02T23:34:05.628Z,92.30
2018-06-02T23:36:39.959Z,92.10
2018-06-02T23:39:14.240Z,92.10
2018-06-02T23:41:48.544Z,92.20
2018-06-02T23:46:56.752Z,92.40
2018-06-02T23:49:31.330Z,92.40
2018-06-02T23:52:05.904Z,92.40
2018-06-02T23:54:41.856Z,92.50
2018-06-02T23:57:16.048Z,92.50
2018-06-02T23:59:50.307Z,92.40
